Pendaries, New Mexico
Current Conditions -  °F | °C
As of 12:53 AM on Friday 19 Dec 2014 (Local Time) from KLVS Reporting Station
Clear Clear  
Wind Chill: -11°   Ceiling: Unl
Heat Index: -6°   Visibility: 10mi
Dew Point: -7°   Wind: 7mph
Humidity: 92%   Direction: 360°N
Pressure: 30.06"   Gusts: NA
Location:  35.8214°N, 105.333°W
Report Text: KLVS 190753Z AUTO 36006KT 10SM CLR M06/M07 A3006 RMK AO2 SLP170 T10611072
Loading
Personal Weather Stations






























Interactive Weather Map New forecast layout! Learn more

10-Day Weather Forecast

Advertisements
Track Severe Weather on mobile